createdAt,value
2019-01-21T00:01:18.786Z,94714.45
2019-01-21T00:03:51.875Z,94716.39
2019-01-21T00:06:25.234Z,94719.52
2019-01-21T00:08:58.359Z,94718.92
2019-01-21T00:11:31.480Z,94725.11
2019-01-21T00:14:04.639Z,94725.17
2019-01-21T00:16:37.926Z,94725.02
2019-01-21T00:19:10.989Z,94732.27
2019-01-21T00:21:44.009Z,94738.03
2019-01-21T00:24:16.893Z,94739.37
2019-01-21T00:26:49.812Z,94739.45
2019-01-21T00:29:22.866Z,94737.70
2019-01-21T00:31:55.828Z,94742.92
2019-01-21T00:34:28.750Z,94738.68
2019-01-21T00:37:03.518Z,94748.17
2019-01-21T00:39:37.211Z,94747.70
2019-01-21T00:42:10.234Z,94746.37
2019-01-21T00:44:46.965Z,94746.31
2019-01-21T00:47:22.060Z,94748.19
2019-01-21T00:50:01.082Z,94751.59
2019-01-21T00:52:39.583Z,94755.10
2019-01-21T00:55:17.002Z,94761.45
2019-01-21T00:57:53.290Z,94764.66
2019-01-21T01:00:29.269Z,94753.88
2019-01-21T01:03:07.390Z,94763.05
2019-01-21T01:05:49.307Z,94758.19
2019-01-21T01:08:25.764Z,94758.09
2019-01-21T01:11:03.189Z,94761.20
2019-01-21T01:13:41.475Z,94768.11
2019-01-21T01:16:20.028Z,94769.05
2019-01-21T01:18:58.564Z,94766.22
2019-01-21T01:21:36.387Z,94767.16
2019-01-21T01:24:14.406Z,94760.58
2019-01-21T01:26:51.737Z,94756.75
2019-01-21T01:29:30.716Z,94753.66
2019-01-21T01:32:09.574Z,94749.28
2019-01-21T01:34:47.899Z,94748.13
2019-01-21T01:37:28.795Z,94752.56
2019-01-21T01:40:21.078Z,94754.75
2019-01-21T01:43:14.268Z,94753.23
2019-01-21T01:45:47.482Z,94749.50
2019-01-21T01:48:20.417Z,94753.92
2019-01-21T01:50:53.511Z,94749.27
2019-01-21T01:53:26.782Z,94758.63
2019-01-21T01:56:00.008Z,94761.76
2019-01-21T01:58:32.931Z,94756.14
2019-01-21T02:01:06.411Z,94753.03
2019-01-21T02:03:39.294Z,94755.59
2019-01-21T02:06:12.267Z,94751.96
2019-01-21T02:08:45.331Z,94755.20
2019-01-21T02:11:18.550Z,94757.72
2019-01-21T02:13:51.309Z,94755.45
2019-01-21T02:16:24.489Z,94755.22
2019-01-21T02:18:58.714Z,94759.56
2019-01-21T02:21:33.792Z,94767.68
2019-01-21T02:24:10.158Z,94759.90
2019-01-21T02:27:00.607Z,94753.97
2019-01-21T02:30:36.605Z,94758.95
2019-01-21T02:34:07.306Z,94761.98
2019-01-21T02:37:46.391Z,94759.58
2019-01-21T02:40:59.891Z,94763.45
2019-01-21T02:44:13.149Z,94769.38
2019-01-21T02:47:37.704Z,94765.88
2019-01-21T02:51:23.622Z,94767.47
2019-01-21T02:54:25.586Z,94766.66
2019-01-21T02:58:14.061Z,94764.98
2019-01-21T03:01:25.498Z,94757.97
2019-01-21T03:04:39.053Z,94757.22
2019-01-21T03:07:41.177Z,94756.12
2019-01-21T03:10:33.095Z,94755.41
2019-01-21T03:13:44.702Z,94756.16
2019-01-21T03:17:23.122Z,94752.89
2019-01-21T03:20:37.215Z,94758.92
2019-01-21T03:24:03.307Z,94759.27
2019-01-21T03:27:32.312Z,94754.27
2019-01-21T03:31:03.125Z,94750.23
2019-01-21T03:34:47.225Z,94749.52
2019-01-21T03:38:41.105Z,94754.50
2019-01-21T03:42:00.560Z,94748.64
2019-01-21T03:45:57.568Z,94747.09
2019-01-21T03:49:02.122Z,94751.53
2019-01-21T03:52:24.378Z,94749.08
2019-01-21T03:55:10.147Z,94749.83
2019-01-21T03:58:33.746Z,94751.06
2019-01-21T04:02:08.291Z,94751.63
2019-01-21T04:05:47.052Z,94748.03
2019-01-21T04:09:07.717Z,94747.06
2019-01-21T04:12:10.376Z,94747.01
2019-01-21T04:15:47.606Z,94740.78
2019-01-21T04:19:30.699Z,94747.69
2019-01-21T04:22:53.297Z,94753.30
2019-01-21T04:26:04.055Z,94758.95
2019-01-21T04:29:22.338Z,94764.44
2019-01-21T04:32:09.940Z,94761.30
2019-01-21T04:35:43.185Z,94760.33
2019-01-21T04:39:30.956Z,94767.00
2019-01-21T04:42:54.794Z,94778.03
2019-01-21T04:45:53.224Z,94778.19
2019-01-21T04:49:11.593Z,94789.13
2019-01-21T04:52:38.056Z,94795.71
2019-01-21T04:56:44.320Z,94798.09
2019-01-21T05:00:22.346Z,94802.91
2019-01-21T05:03:39.977Z,94795.17
2019-01-21T05:07:34.074Z,94786.45
2019-01-21T05:11:17.272Z,94790.53
2019-01-21T05:14:39.239Z,94798.11
2019-01-21T05:18:26.244Z,94800.12
2019-01-21T05:22:04.920Z,94801.53
2019-01-21T05:25:28.641Z,94798.54
2019-01-21T05:29:05.594Z,94800.38
2019-01-21T05:31:59.061Z,94805.86
2019-01-21T05:35:38.253Z,94808.96
2019-01-21T05:38:41.612Z,94816.87
2019-01-21T05:41:59.060Z,94817.59
2019-01-21T05:49:21.610Z,94825.78
2019-01-21T05:53:00.308Z,94829.45
2019-01-21T05:56:38.754Z,94829.63
2019-01-21T06:00:07.855Z,94831.95
2019-01-21T06:03:21.360Z,94838.10
2019-01-21T06:06:35.177Z,94842.64
2019-01-21T06:10:19.366Z,94844.92
2019-01-21T06:13:59.260Z,94845.23
2019-01-21T06:18:02.280Z,94840.69
2019-01-21T06:21:34.992Z,94845.98
2019-01-21T06:24:57.291Z,94848.69
2019-01-21T06:28:32.478Z,94856.25
2019-01-21T06:31:48.752Z,94853.80
2019-01-21T06:35:22.361Z,94857.73
2019-01-21T06:38:19.539Z,94859.16
2019-01-21T06:42:13.827Z,94867.19
2019-01-21T06:45:39.492Z,94863.86
2019-01-21T06:49:26.254Z,94876.17
2019-01-21T06:53:07.049Z,94879.41
2019-01-21T06:56:10.048Z,94879.69
2019-01-21T06:59:43.670Z,94885.27
2019-01-21T07:03:07.176Z,94891.67
2019-01-21T07:06:33.985Z,94891.35
2019-01-21T07:09:51.076Z,94899.07
2019-01-21T07:13:16.255Z,94899.53
2019-01-21T07:16:48.571Z,94907.48
2019-01-21T07:20:09.840Z,94908.69
2019-01-21T07:23:42.451Z,94909.98
2019-01-21T07:27:00.814Z,94912.09
2019-01-21T07:30:30.721Z,94909.80
2019-01-21T07:33:44.032Z,94916.86
2019-01-21T07:36:57.296Z,94925.17
2019-01-21T07:40:11.232Z,94926.64
2019-01-21T07:43:21.335Z,94925.25
2019-01-21T07:47:00.361Z,94919.77
2019-01-21T07:50:29.954Z,94920.77
2019-01-21T07:53:55.571Z,94920.77
2019-01-21T07:57:37.791Z,94923.06
2019-01-21T08:00:27.061Z,94929.41
2019-01-21T08:03:57.022Z,94935.78
2019-01-21T08:07:20.853Z,94938.84
2019-01-21T08:10:49.592Z,94938.78
2019-01-21T08:14:09.115Z,94945.19
2019-01-21T08:17:54.849Z,94948.33
2019-01-21T08:20:46.087Z,94951.84
2019-01-21T08:24:13.276Z,94962.59
2019-01-21T08:27:39.292Z,94968.13
2019-01-21T08:30:49.680Z,94970.08
2019-01-21T08:34:24.390Z,94972.70
2019-01-21T08:37:58.723Z,94975.94
2019-01-21T08:41:11.320Z,94975.86
2019-01-21T08:44:53.382Z,94972.02
2019-01-21T08:48:41.796Z,94979.09
2019-01-21T08:52:04.562Z,94980.33
2019-01-21T08:54:56.412Z,94980.64
2019-01-21T08:58:16.376Z,94985.06
2019-01-21T09:01:49.020Z,94983.27
2019-01-21T09:05:00.938Z,94983.51
2019-01-21T09:08:42.354Z,94989.10
2019-01-21T09:12:35.433Z,94988.06
2019-01-21T09:15:50.550Z,94984.92
2019-01-21T09:19:14.789Z,94981.67
2019-01-21T09:22:20.557Z,94978.80
2019-01-21T09:26:16.975Z,94978.84
2019-01-21T09:29:37.090Z,94973.69
2019-01-21T09:32:50.038Z,94972.36
2019-01-21T09:36:10.458Z,94969.30
2019-01-21T09:39:47.888Z,94960.86
2019-01-21T09:43:19.780Z,94961.55
2019-01-21T09:46:46.509Z,94960.15
2019-01-21T09:49:16.336Z,94960.12
2019-01-21T09:52:16.953Z,94956.91
2019-01-21T09:54:50.212Z,94954.80
2019-01-21T09:57:28.068Z,94953.20
2019-01-21T10:00:07.061Z,94944.05
2019-01-21T10:02:50.525Z,94938.73
2019-01-21T10:05:26.576Z,94940.92
2019-01-21T10:08:53.232Z,94940.36
2019-01-21T10:12:50.610Z,94934.59
2019-01-21T10:15:58.240Z,94927.86
2019-01-21T10:19:25.128Z,94920.88
2019-01-21T10:23:04.080Z,94918.41
2019-01-21T10:26:11.469Z,94914.25
2019-01-21T10:29:42.249Z,94911.22
2019-01-21T10:33:14.192Z,94911.20
2019-01-21T10:37:02.177Z,94906.66
2019-01-21T10:40:11.746Z,94907.82
2019-01-21T10:43:55.017Z,94908.69
2019-01-21T10:47:26.562Z,94909.12
2019-01-21T10:51:03.658Z,94909.19
2019-01-21T10:54:11.193Z,94906.72
2019-01-21T10:57:25.099Z,94906.25
2019-01-21T11:01:04.566Z,94906.86
2019-01-21T11:04:37.683Z,94902.06
2019-01-21T11:08:14.305Z,94902.36
2019-01-21T11:12:02.219Z,94900.51
2019-01-21T11:15:07.299Z,94898.03
2019-01-21T11:18:28.497Z,94893.02
2019-01-21T11:21:28.202Z,94892.59
2019-01-21T11:24:52.760Z,94886.41
2019-01-21T11:28:12.791Z,94887.08
2019-01-21T11:31:45.241Z,94888.44
2019-01-21T11:35:15.219Z,94887.56
2019-01-21T11:38:22.370Z,94884.38
2019-01-21T11:41:24.739Z,94880.52
2019-01-21T11:44:42.330Z,94877.14
2019-01-21T11:47:45.667Z,94871.58
2019-01-21T11:51:20.943Z,94871.39
2019-01-21T11:54:31.575Z,94867.97
2019-01-21T11:58:04.426Z,94872.56
2019-01-21T12:00:55.910Z,94870.03
2019-01-21T12:04:02.091Z,94873.38
2019-01-21T12:07:11.845Z,94872.63
2019-01-21T12:10:47.861Z,94870.84
2019-01-21T12:14:09.479Z,94870.55
2019-01-21T12:17:52.260Z,94864.56
2019-01-21T12:21:09.290Z,94864.78
2019-01-21T12:24:33.259Z,94860.08
2019-01-21T12:28:04.167Z,94856.92
2019-01-21T12:31:45.257Z,94856.19
2019-01-21T12:35:41.640Z,94853.16
2019-01-21T12:39:06.380Z,94858.50
2019-01-21T12:42:42.262Z,94861.76
2019-01-21T12:46:23.992Z,94865.33
2019-01-21T12:49:49.797Z,94870.02
2019-01-21T12:53:29.642Z,94864.44
2019-01-21T12:57:01.905Z,94865.53
2019-01-21T13:00:45.277Z,94867.23
2019-01-21T13:04:20.326Z,94864.31
2019-01-21T13:07:27.114Z,94855.50
2019-01-21T13:10:55.378Z,94859.87
2019-01-21T13:14:21.677Z,94858.84
2019-01-21T13:17:42.450Z,94858.17
2019-01-21T13:21:08.428Z,94861.74
2019-01-21T13:24:31.070Z,94861.20
2019-01-21T13:27:55.627Z,94856.36
2019-01-21T13:31:06.357Z,94852.80
2019-01-21T13:34:19.500Z,94856.87
2019-01-21T13:37:58.276Z,94851.04
2019-01-21T13:41:25.385Z,94854.53
2019-01-21T13:45:02.909Z,94853.33
2019-01-21T13:48:47.536Z,94848.15
2019-01-21T13:52:36.500Z,94842.55
2019-01-21T13:55:43.489Z,94843.56
2019-01-21T13:58:49.288Z,94848.00
2019-01-21T14:01:58.210Z,94853.01
2019-01-21T14:05:57.429Z,94847.72
2019-01-21T14:09:56.906Z,94850.38
2019-01-21T14:13:35.160Z,94851.03
2019-01-21T14:17:14.659Z,94851.06
2019-01-21T14:20:28.485Z,94860.89
2019-01-21T14:24:01.996Z,94858.85
2019-01-21T14:27:39.558Z,94869.37
2019-01-21T14:31:15.706Z,94865.36
2019-01-21T14:34:39.091Z,94859.92
2019-01-21T14:38:00.431Z,94863.13
2019-01-21T14:41:22.380Z,94866.32
2019-01-21T14:45:09.162Z,94866.70
2019-01-21T14:48:40.482Z,94868.70
2019-01-21T14:52:09.355Z,94873.25
2019-01-21T14:55:38.376Z,94869.95
2019-01-21T14:59:07.228Z,94871.73
2019-01-21T15:02:01.742Z,94869.76
2019-01-21T15:05:28.306Z,94868.52
2019-01-21T15:08:11.976Z,94865.61
2019-01-21T15:11:42.884Z,94870.75
2019-01-21T15:15:30.574Z,94866.56
2019-01-21T15:19:00.518Z,94870.16
2019-01-21T15:22:34.603Z,94875.75
2019-01-21T15:25:47.591Z,94870.78
2019-01-21T15:29:40.814Z,94873.35
2019-01-21T15:33:27.135Z,94876.70
2019-01-21T15:37:09.826Z,94882.39
2019-01-21T15:40:44.675Z,94875.39
2019-01-21T15:43:42.909Z,94877.34
2019-01-21T15:47:19.592Z,94886.09
2019-01-21T15:50:14.246Z,94890.14
2019-01-21T15:53:33.452Z,94887.06
2019-01-21T15:56:48.672Z,94887.34
2019-01-21T16:00:08.389Z,94889.88
2019-01-21T16:03:33.812Z,94894.03
2019-01-21T16:07:21.142Z,94904.75
2019-01-21T16:10:48.527Z,94910.63
2019-01-21T16:13:48.281Z,94911.82
2019-01-21T16:17:33.309Z,94915.81
2019-01-21T16:20:39.256Z,94911.27
2019-01-21T16:24:13.107Z,94914.27
2019-01-21T16:27:16.165Z,94910.72
2019-01-21T16:30:16.001Z,94906.05
2019-01-21T16:33:56.773Z,94912.45
2019-01-21T16:37:15.195Z,94913.63
2019-01-21T16:40:52.747Z,94914.77
2019-01-21T16:43:26.482Z,94913.88
2019-01-21T16:45:59.862Z,94914.92
2019-01-21T16:48:33.237Z,94915.33
2019-01-21T16:51:06.800Z,94920.85
2019-01-21T16:53:40.658Z,94922.80
2019-01-21T16:56:14.341Z,94923.79
2019-01-21T16:58:48.466Z,94927.69
2019-01-21T17:01:26.681Z,94926.01
2019-01-21T17:04:00.430Z,94923.88
2019-01-21T17:06:34.542Z,94931.22
2019-01-21T17:09:12.780Z,94929.62
2019-01-21T17:11:46.802Z,94930.36
2019-01-21T17:14:20.750Z,94920.97
2019-01-21T17:16:54.845Z,94925.66
2019-01-21T17:19:28.859Z,94922.86
2019-01-21T17:22:02.688Z,94922.56
2019-01-21T17:24:36.583Z,94926.27
2019-01-21T17:27:12.987Z,94928.72
2019-01-21T17:29:47.141Z,94924.03
2019-01-21T17:32:21.588Z,94925.15
2019-01-21T17:34:57.565Z,94923.83
2019-01-21T17:37:31.539Z,94923.84
2019-01-21T17:40:06.941Z,94921.34
2019-01-21T17:42:40.754Z,94928.99
2019-01-21T17:45:17.919Z,94929.70
2019-01-21T17:47:52.072Z,94930.48
2019-01-21T17:50:26.213Z,94926.03
2019-01-21T17:52:59.931Z,94926.93
2019-01-21T17:55:33.524Z,94929.68
2019-01-21T17:58:07.463Z,94925.02
2019-01-21T18:00:41.270Z,94932.42
2019-01-21T18:03:15.017Z,94927.73
2019-01-21T18:05:48.383Z,94930.86
2019-01-21T18:08:22.007Z,94931.27
2019-01-21T18:10:58.146Z,94926.46
2019-01-21T18:13:31.838Z,94919.98
2019-01-21T18:16:05.603Z,94925.82
2019-01-21T18:18:39.667Z,94927.43
2019-01-21T18:21:13.305Z,94930.23
2019-01-21T18:23:46.966Z,94928.82
2019-01-21T18:26:21.454Z,94932.45
2019-01-21T18:28:55.893Z,94929.06
2019-01-21T18:31:49.527Z,94931.44
2019-01-21T18:34:23.501Z,94937.06
2019-01-21T18:36:57.373Z,94932.95
2019-01-21T18:39:31.112Z,94933.37
2019-01-21T18:42:04.882Z,94928.11
2019-01-21T18:44:38.822Z,94927.17
2019-01-21T18:47:12.291Z,94927.30
2019-01-21T18:49:45.753Z,94928.35
2019-01-21T18:52:20.611Z,94926.27
2019-01-21T18:54:54.254Z,94926.98
2019-01-21T18:57:27.606Z,94932.13
2019-01-21T19:00:01.393Z,94933.75
2019-01-21T19:02:35.487Z,94933.14
2019-01-21T19:05:10.086Z,94933.28
2019-01-21T19:07:43.561Z,94937.84
2019-01-21T19:10:19.271Z,94937.70
2019-01-21T19:12:53.909Z,94940.72
2019-01-21T19:15:34.884Z,94939.10
2019-01-21T19:18:09.681Z,94943.38
2019-01-21T19:20:43.379Z,94937.20
2019-01-21T19:23:17.168Z,94938.48
2019-01-21T19:25:51.079Z,94932.70
2019-01-21T19:28:24.991Z,94928.19
2019-01-21T19:30:58.681Z,94925.58
2019-01-21T19:33:32.628Z,94923.75
2019-01-21T19:36:06.842Z,94917.08
2019-01-21T19:38:40.769Z,94924.31
2019-01-21T19:41:14.794Z,94927.34
2019-01-21T19:43:51.022Z,94926.05
2019-01-21T19:46:28.036Z,94932.09
2019-01-21T19:49:02.013Z,94932.52
2019-01-21T19:51:35.694Z,94932.92
2019-01-21T19:54:09.716Z,94928.86
2019-01-21T19:56:46.236Z,94927.80
2019-01-21T19:59:19.639Z,94927.78
2019-01-21T20:01:53.419Z,94926.95
2019-01-21T20:04:30.525Z,94924.64
2019-01-21T20:07:06.513Z,94920.03
2019-01-21T20:09:41.342Z,94919.73
2019-01-21T20:12:16.439Z,94928.06
2019-01-21T20:14:49.763Z,94926.42
2019-01-21T20:17:23.469Z,94925.52
2019-01-21T20:19:57.087Z,94932.20
2019-01-21T20:22:30.442Z,94933.84
2019-01-21T20:25:04.519Z,94933.94
2019-01-21T20:27:38.217Z,94942.63
2019-01-21T20:30:15.176Z,94940.76
2019-01-21T20:32:49.559Z,94934.88
2019-01-21T20:35:26.680Z,94937.73
2019-01-21T20:38:00.103Z,94936.83
2019-01-21T20:40:33.677Z,94936.39
2019-01-21T20:43:07.257Z,94936.18
2019-01-21T20:45:40.776Z,94935.95
2019-01-21T20:48:14.375Z,94933.34
2019-01-21T20:53:56.094Z,94928.85
2019-01-21T20:56:29.796Z,94931.70
2019-01-21T20:59:03.313Z,94930.70
2019-01-21T21:01:36.698Z,94928.36
2019-01-21T21:04:09.786Z,94925.82
2019-01-21T21:06:43.065Z,94918.72
2019-01-21T21:09:16.176Z,94927.88
2019-01-21T21:11:52.073Z,94924.75
2019-01-21T21:14:25.642Z,94918.92
2019-01-21T21:16:58.614Z,94925.84
2019-01-21T21:19:32.185Z,94928.11
2019-01-21T21:22:05.313Z,94928.86
2019-01-21T21:24:38.568Z,94929.79
2019-01-21T21:27:16.072Z,94932.93
2019-01-21T21:29:49.509Z,94931.94
2019-01-21T21:32:22.455Z,94930.98
2019-01-21T21:34:55.528Z,94932.95
2019-01-21T21:37:28.548Z,94929.20
2019-01-21T21:40:01.719Z,94924.67
2019-01-21T21:42:34.525Z,94923.14
2019-01-21T21:45:08.942Z,94921.94
2019-01-21T21:47:42.099Z,94920.19
2019-01-21T21:50:21.381Z,94921.08
2019-01-21T21:52:54.386Z,94920.38
2019-01-21T21:55:27.309Z,94916.34
2019-01-21T21:58:00.328Z,94917.20
2019-01-21T22:00:33.626Z,94914.66
2019-01-21T22:03:06.383Z,94913.15
2019-01-21T22:05:39.160Z,94921.03
2019-01-21T22:08:12.147Z,94919.73
2019-01-21T22:10:45.143Z,94917.77
2019-01-21T22:13:18.035Z,94920.80
2019-01-21T22:15:50.740Z,94918.43
2019-01-21T22:18:23.671Z,94915.02
2019-01-21T22:20:56.575Z,94915.39
2019-01-21T22:23:30.961Z,94906.97
2019-01-21T22:26:03.809Z,94903.16
2019-01-21T22:28:36.671Z,94900.89
2019-01-21T22:31:09.800Z,94898.26
2019-01-21T22:33:42.819Z,94895.26
2019-01-21T22:36:15.837Z,94899.39
2019-01-21T22:38:48.628Z,94892.02
2019-01-21T22:41:21.951Z,94896.38
2019-01-21T22:43:54.709Z,94894.09
2019-01-21T22:46:27.699Z,94893.91
2019-01-21T22:49:00.858Z,94894.50
2019-01-21T22:51:34.026Z,94893.50
2019-01-21T22:54:09.388Z,94895.06
2019-01-21T22:56:50.861Z,94895.27
2019-01-21T22:59:30.693Z,94893.67
2019-01-21T23:02:10.142Z,94887.20
2019-01-21T23:04:47.782Z,94889.66
2019-01-21T23:07:25.538Z,94882.50
2019-01-21T23:10:02.047Z,94889.79
2019-01-21T23:12:37.923Z,94886.37
2019-01-21T23:15:15.691Z,94886.66
2019-01-21T23:17:53.964Z,94884.20
2019-01-21T23:20:32.190Z,94890.91
2019-01-21T23:23:12.526Z,94891.55
2019-01-21T23:25:46.011Z,94889.62
2019-01-21T23:28:23.847Z,94893.36
2019-01-21T23:30:59.219Z,94882.58
2019-01-21T23:33:38.098Z,94886.86
2019-01-21T23:36:19.393Z,94885.83
2019-01-21T23:38:56.677Z,94882.32
2019-01-21T23:41:55.389Z,94883.83
2019-01-21T23:44:35.046Z,94873.52
2019-01-21T23:47:15.325Z,94882.37
2019-01-21T23:49:54.027Z,94887.69
2019-01-21T23:52:32.092Z,94883.70
2019-01-21T23:55:06.329Z,94888.42
2019-01-21T23:58:05.156Z,94886.86
